sensor_id;sensor_type;location;lat;lon;timestamp;temperature;humidity
68746;SHT31;73143;45.456;11.064;2023-10-08T00:01:01;20.52;63.23
68746;SHT31;73143;45.456;11.064;2023-10-08T00:03:45;20.52;63.26
68746;SHT31;73143;45.456;11.064;2023-10-08T00:06:22;20.54;63.20
68746;SHT31;73143;45.456;11.064;2023-10-08T00:09:00;20.51;63.30
68746;SHT31;73143;45.456;11.064;2023-10-08T00:11:42;20.50;63.41
68746;SHT31;73143;45.456;11.064;2023-10-08T00:14:22;20.49;63.53
68746;SHT31;73143;45.456;11.064;2023-10-08T00:16:59;20.44;63.97
68746;SHT31;73143;45.456;11.064;2023-10-08T00:19:40;20.32;64.69
68746;SHT31;73143;45.456;11.064;2023-10-08T00:22:21;20.23;65.11
68746;SHT31;73143;45.456;11.064;2023-10-08T00:25:05;20.18;65.14
68746;SHT31;73143;45.456;11.064;2023-10-08T00:27:46;20.17;65.07
68746;SHT31;73143;45.456;11.064;2023-10-08T00:30:22;20.16;65.06
68746;SHT31;73143;45.456;11.064;2023-10-08T00:33:00;20.15;64.99
68746;SHT31;73143;45.456;11.064;2023-10-08T00:35:44;20.16;64.86
68746;SHT31;73143;45.456;11.064;2023-10-08T00:38:20;20.17;64.51
68746;SHT31;73143;45.456;11.064;2023-10-08T00:41:00;20.16;64.32
68746;SHT31;73143;45.456;11.064;2023-10-08T00:43:38;20.16;64.26
68746;SHT31;73143;45.456;11.064;2023-10-08T00:46:16;20.15;64.27
68746;SHT31;73143;45.456;11.064;2023-10-08T00:48:53;20.10;64.37
68746;SHT31;73143;45.456;11.064;2023-10-08T00:51:47;20.03;64.58
68746;SHT31;73143;45.456;11.064;2023-10-08T00:54:37;19.97;64.75
68746;SHT31;73143;45.456;11.064;2023-10-08T00:57:25;19.93;64.87
68746;SHT31;73143;45.456;11.064;2023-10-08T01:00:05;19.88;64.99
68746;SHT31;73143;45.456;11.064;2023-10-08T01:02:52;19.84;65.00
68746;SHT31;73143;45.456;11.064;2023-10-08T01:05:34;19.83;64.97
68746;SHT31;73143;45.456;11.064;2023-10-08T01:08:16;19.84;64.89
68746;SHT31;73143;45.456;11.064;2023-10-08T01:14:01;19.84;64.80
68746;SHT31;73143;45.456;11.064;2023-10-08T01:16:44;19.84;64.76
68746;SHT31;73143;45.456;11.064;2023-10-08T01:19:20;19.85;64.70
68746;SHT31;73143;45.456;11.064;2023-10-08T01:24:45;19.80;64.75
68746;SHT31;73143;45.456;11.064;2023-10-08T01:27:22;19.78;64.85
68746;SHT31;73143;45.456;11.064;2023-10-08T01:30:05;19.76;64.94
68746;SHT31;73143;45.456;11.064;2023-10-08T01:32:47;19.75;65.00
68746;SHT31;73143;45.456;11.064;2023-10-08T01:35:24;19.72;65.04
68746;SHT31;73143;45.456;11.064;2023-10-08T01:38:03;19.72;65.05
68746;SHT31;73143;45.456;11.064;2023-10-08T01:40:53;19.70;65.10
68746;SHT31;73143;45.456;11.064;2023-10-08T01:43:36;19.68;65.12
68746;SHT31;73143;45.456;11.064;2023-10-08T01:46:13;19.68;65.25
68746;SHT31;73143;45.456;11.064;2023-10-08T01:48:51;19.69;65.20
68746;SHT31;73143;45.456;11.064;2023-10-08T01:51:33;19.67;65.27
68746;SHT31;73143;45.456;11.064;2023-10-08T01:54:16;19.64;65.34
68746;SHT31;73143;45.456;11.064;2023-10-08T01:56:55;19.56;65.41
68746;SHT31;73143;45.456;11.064;2023-10-08T01:59:32;19.44;65.62
68746;SHT31;73143;45.456;11.064;2023-10-08T02:02:09;19.35;65.73
68746;SHT31;73143;45.456;11.064;2023-10-08T02:04:45;19.31;65.87
68746;SHT31;73143;45.456;11.064;2023-10-08T02:07:22;19.26;66.07
68746;SHT31;73143;45.456;11.064;2023-10-08T02:10:03;19.13;66.53
68746;SHT31;73143;45.456;11.064;2023-10-08T02:12:44;19.03;67.04
68746;SHT31;73143;45.456;11.064;2023-10-08T02:15:22;18.99;67.29
68746;SHT31;73143;45.456;11.064;2023-10-08T02:18:00;18.93;67.71
68746;SHT31;73143;45.456;11.064;2023-10-08T02:20:40;18.84;68.23
68746;SHT31;73143;45.456;11.064;2023-10-08T02:23:17;18.75;68.51
68746;SHT31;73143;45.456;11.064;2023-10-08T02:25:54;18.71;68.76
68746;SHT31;73143;45.456;11.064;2023-10-08T02:28:35;18.68;68.79
68746;SHT31;73143;45.456;11.064;2023-10-08T02:31:12;18.71;68.88
68746;SHT31;73143;45.456;11.064;2023-10-08T02:33:50;18.75;68.91
68746;SHT31;73143;45.456;11.064;2023-10-08T02:36:28;18.72;68.86
68746;SHT31;73143;45.456;11.064;2023-10-08T02:39:07;18.73;68.80
68746;SHT31;73143;45.456;11.064;2023-10-08T02:41:46;18.72;68.64
68746;SHT31;73143;45.456;11.064;2023-10-08T02:44:28;18.67;68.40
68746;SHT31;73143;45.456;11.064;2023-10-08T02:47:07;18.56;68.45
68746;SHT31;73143;45.456;11.064;2023-10-08T02:49:45;18.54;68.46
68746;SHT31;73143;45.456;11.064;2023-10-08T02:52:27;18.53;68.42
68746;SHT31;73143;45.456;11.064;2023-10-08T02:55:05;18.54;68.42
68746;SHT31;73143;45.456;11.064;2023-10-08T02:57:56;18.55;68.50
68746;SHT31;73143;45.456;11.064;2023-10-08T03:00:34;18.55;68.53
68746;SHT31;73143;45.456;11.064;2023-10-08T03:03:12;18.55;68.58
68746;SHT31;73143;45.456;11.064;2023-10-08T03:05:49;18.55;68.56
68746;SHT31;73143;45.456;11.064;2023-10-08T03:08:27;18.58;68.45
68746;SHT31;73143;45.456;11.064;2023-10-08T03:11:05;18.60;68.39
68746;SHT31;73143;45.456;11.064;2023-10-08T03:13:47;18.63;68.29
68746;SHT31;73143;45.456;11.064;2023-10-08T03:16:26;18.65;68.25
68746;SHT31;73143;45.456;11.064;2023-10-08T03:19:04;18.60;68.07
68746;SHT31;73143;45.456;11.064;2023-10-08T03:21:41;18.52;68.18
68746;SHT31;73143;45.456;11.064;2023-10-08T03:24:24;18.49;68.18
68746;SHT31;73143;45.456;11.064;2023-10-08T03:27:06;18.44;68.19
68746;SHT31;73143;45.456;11.064;2023-10-08T03:29:50;18.37;68.23
68746;SHT31;73143;45.456;11.064;2023-10-08T03:32:28;18.21;68.21
68746;SHT31;73143;45.456;11.064;2023-10-08T03:35:07;18.07;68.42
68746;SHT31;73143;45.456;11.064;2023-10-08T03:37:45;18.01;68.50
68746;SHT31;73143;45.456;11.064;2023-10-08T03:40:24;17.94;68.89
68746;SHT31;73143;45.456;11.064;2023-10-08T03:43:12;17.74;69.60
68746;SHT31;73143;45.456;11.064;2023-10-08T03:46:03;17.70;70.23
68746;SHT31;73143;45.456;11.064;2023-10-08T03:48:46;17.71;70.40
68746;SHT31;73143;45.456;11.064;2023-10-08T03:51:26;17.71;70.42
68746;SHT31;73143;45.456;11.064;2023-10-08T03:54:09;17.69;70.51
68746;SHT31;73143;45.456;11.064;2023-10-08T03:56:57;17.69;70.49
68746;SHT31;73143;45.456;11.064;2023-10-08T03:59:42;17.74;70.30
68746;SHT31;73143;45.456;11.064;2023-10-08T04:02:24;17.76;69.89
68746;SHT31;73143;45.456;11.064;2023-10-08T04:05:09;17.78;69.63
68746;SHT31;73143;45.456;11.064;2023-10-08T04:07:52;17.77;69.70
68746;SHT31;73143;45.456;11.064;2023-10-08T04:10:53;17.77;69.76
68746;SHT31;73143;45.456;11.064;2023-10-08T04:13:52;17.77;69.82
68746;SHT31;73143;45.456;11.064;2023-10-08T04:16:32;17.76;69.91
68746;SHT31;73143;45.456;11.064;2023-10-08T04:19:09;17.72;69.95
68746;SHT31;73143;45.456;11.064;2023-10-08T04:21:48;17.71;70.07
68746;SHT31;73143;45.456;11.064;2023-10-08T04:24:27;17.72;70.04
68746;SHT31;73143;45.456;11.064;2023-10-08T04:27:07;17.74;70.00
68746;SHT31;73143;45.456;11.064;2023-10-08T04:29:45;17.75;69.90
68746;SHT31;73143;45.456;11.064;2023-10-08T04:32:22;17.69;69.67
68746;SHT31;73143;45.456;11.064;2023-10-08T04:35:01;17.65;69.84
68746;SHT31;73143;45.456;11.064;2023-10-08T04:37:43;17.65;69.94
68746;SHT31;73143;45.456;11.064;2023-10-08T04:40:25;17.67;69.84
68746;SHT31;73143;45.456;11.064;2023-10-08T04:43:11;17.68;69.66
68746;SHT31;73143;45.456;11.064;2023-10-08T04:45:54;17.69;69.52
68746;SHT31;73143;45.456;11.064;2023-10-08T04:48:35;17.72;69.63
68746;SHT31;73143;45.456;11.064;2023-10-08T04:51:13;17.67;69.56
68746;SHT31;73143;45.456;11.064;2023-10-08T04:53:52;17.55;69.55
68746;SHT31;73143;45.456;11.064;2023-10-08T04:56:29;17.42;69.76
68746;SHT31;73143;45.456;11.064;2023-10-08T04:59:08;17.37;69.92
68746;SHT31;73143;45.456;11.064;2023-10-08T05:01:50;17.39;70.10
68746;SHT31;73143;45.456;11.064;2023-10-08T05:04:43;17.38;70.09
68746;SHT31;73143;45.456;11.064;2023-10-08T05:07:48;17.33;69.69
68746;SHT31;73143;45.456;11.064;2023-10-08T05:11:06;17.30;69.28
68746;SHT31;73143;45.456;11.064;2023-10-08T05:14:15;17.28;69.18
68746;SHT31;73143;45.456;11.064;2023-10-08T05:17:05;17.27;68.82
68746;SHT31;73143;45.456;11.064;2023-10-08T05:19:52;17.25;68.70
68746;SHT31;73143;45.456;11.064;2023-10-08T05:22:48;17.22;68.68
68746;SHT31;73143;45.456;11.064;2023-10-08T05:25:36;17.19;68.79
68746;SHT31;73143;45.456;11.064;2023-10-08T05:28:27;17.21;68.88
68746;SHT31;73143;45.456;11.064;2023-10-08T05:31:15;17.27;68.80
68746;SHT31;73143;45.456;11.064;2023-10-08T05:34:06;17.32;68.66
68746;SHT31;73143;45.456;11.064;2023-10-08T05:36:47;17.34;68.24
68746;SHT31;73143;45.456;11.064;2023-10-08T05:40:02;17.38;68.10
68746;SHT31;73143;45.456;11.064;2023-10-08T05:43:13;17.42;68.02
68746;SHT31;73143;45.456;11.064;2023-10-08T05:46:13;17.49;68.00
68746;SHT31;73143;45.456;11.064;2023-10-08T05:49:03;17.46;68.08
68746;SHT31;73143;45.456;11.064;2023-10-08T05:52:11;17.42;68.23
68746;SHT31;73143;45.456;11.064;2023-10-08T05:55:01;17.44;67.59
68746;SHT31;73143;45.456;11.064;2023-10-08T05:57:55;17.42;67.28
68746;SHT31;73143;45.456;11.064;2023-10-08T06:00:43;17.45;67.01
68746;SHT31;73143;45.456;11.064;2023-10-08T06:03:39;17.43;66.71
68746;SHT31;73143;45.456;11.064;2023-10-08T06:06:30;17.44;66.80
68746;SHT31;73143;45.456;11.064;2023-10-08T06:09:18;17.46;66.78
68746;SHT31;73143;45.456;11.064;2023-10-08T06:12:06;17.52;66.68
68746;SHT31;73143;45.456;11.064;2023-10-08T06:14:49;17.60;66.51
68746;SHT31;73143;45.456;11.064;2023-10-08T06:17:37;17.66;66.50
68746;SHT31;73143;45.456;11.064;2023-10-08T06:20:36;17.69;66.60
68746;SHT31;73143;45.456;11.064;2023-10-08T06:23:14;17.78;66.61
68746;SHT31;73143;45.456;11.064;2023-10-08T06:25:52;17.87;66.71
68746;SHT31;73143;45.456;11.064;2023-10-08T06:28:34;17.93;66.95
68746;SHT31;73143;45.456;11.064;2023-10-08T06:31:12;18.01;67.06
68746;SHT31;73143;45.456;11.064;2023-10-08T06:33:54;18.06;67.15
68746;SHT31;73143;45.456;11.064;2023-10-08T06:36:32;18.14;67.12
68746;SHT31;73143;45.456;11.064;2023-10-08T06:39:10;18.21;66.77
68746;SHT31;73143;45.456;11.064;2023-10-08T06:41:48;18.25;66.74
68746;SHT31;73143;45.456;11.064;2023-10-08T06:44:30;18.26;67.07
68746;SHT31;73143;45.456;11.064;2023-10-08T06:47:11;18.25;67.16
68746;SHT31;73143;45.456;11.064;2023-10-08T06:49:51;18.21;67.25
68746;SHT31;73143;45.456;11.064;2023-10-08T06:52:37;18.16;67.37
68746;SHT31;73143;45.456;11.064;2023-10-08T06:55:15;18.16;67.18
68746;SHT31;73143;45.456;11.064;2023-10-08T06:57:57;18.18;67.05
68746;SHT31;73143;45.456;11.064;2023-10-08T07:00:37;18.26;66.83
68746;SHT31;73143;45.456;11.064;2023-10-08T07:03:30;18.40;66.55
68746;SHT31;73143;45.456;11.064;2023-10-08T07:06:08;18.58;66.23
68746;SHT31;73143;45.456;11.064;2023-10-08T07:08:58;18.77;65.86
68746;SHT31;73143;45.456;11.064;2023-10-08T07:11:42;18.94;66.08
68746;SHT31;73143;45.456;11.064;2023-10-08T07:14:19;19.08;66.02
68746;SHT31;73143;45.456;11.064;2023-10-08T07:16:58;19.23;65.79
68746;SHT31;73143;45.456;11.064;2023-10-08T07:19:38;19.35;65.56
68746;SHT31;73143;45.456;11.064;2023-10-08T07:22:20;19.48;65.30
68746;SHT31;73143;45.456;11.064;2023-10-08T07:24:58;19.59;65.08
68746;SHT31;73143;45.456;11.064;2023-10-08T07:27:37;19.73;64.88
68746;SHT31;73143;45.456;11.064;2023-10-08T07:30:14;19.83;65.35
68746;SHT31;73143;45.456;11.064;2023-10-08T07:33:01;19.90;65.63
68746;SHT31;73143;45.456;11.064;2023-10-08T07:35:47;19.96;65.70
68746;SHT31;73143;45.456;11.064;2023-10-08T07:38:33;20.00;65.92
68746;SHT31;73143;45.456;11.064;2023-10-08T07:41:11;20.07;65.95
68746;SHT31;73143;45.456;11.064;2023-10-08T07:43:49;20.15;65.92
68746;SHT31;73143;45.456;11.064;2023-10-08T07:46:26;20.25;65.64
68746;SHT31;73143;45.456;11.064;2023-10-08T07:49:03;20.35;65.43
68746;SHT31;73143;45.456;11.064;2023-10-08T07:51:43;20.48;64.95
68746;SHT31;73143;45.456;11.064;2023-10-08T07:54:22;20.63;64.32
68746;SHT31;73143;45.456;11.064;2023-10-08T07:57:03;20.76;63.92
68746;SHT31;73143;45.456;11.064;2023-10-08T07:59:41;20.89;63.29
68746;SHT31;73143;45.456;11.064;2023-10-08T08:02:17;21.01;61.85
68746;SHT31;73143;45.456;11.064;2023-10-08T08:04:56;21.14;60.31
68746;SHT31;73143;45.456;11.064;2023-10-08T08:07:33;21.26;59.97
68746;SHT31;73143;45.456;11.064;2023-10-08T08:10:11;21.39;59.59
68746;SHT31;73143;45.456;11.064;2023-10-08T08:12:52;21.50;58.95
68746;SHT31;73143;45.456;11.064;2023-10-08T08:15:29;21.59;58.06
68746;SHT31;73143;45.456;11.064;2023-10-08T08:18:09;21.68;57.50
68746;SHT31;73143;45.456;11.064;2023-10-08T08:20:52;21.79;57.72
68746;SHT31;73143;45.456;11.064;2023-10-08T08:23:31;21.88;57.74
68746;SHT31;73143;45.456;11.064;2023-10-08T08:26:09;21.98;57.73
68746;SHT31;73143;45.456;11.064;2023-10-08T08:28:57;22.09;58.00
68746;SHT31;73143;45.456;11.064;2023-10-08T08:31:33;22.17;58.59
68746;SHT31;73143;45.456;11.064;2023-10-08T08:34:14;22.26;58.42
68746;SHT31;73143;45.456;11.064;2023-10-08T08:36:53;22.31;58.21
68746;SHT31;73143;45.456;11.064;2023-10-08T08:39:29;22.36;58.14
68746;SHT31;73143;45.456;11.064;2023-10-08T08:42:06;22.43;58.08
68746;SHT31;73143;45.456;11.064;2023-10-08T08:44:44;22.51;58.09
68746;SHT31;73143;45.456;11.064;2023-10-08T08:47:23;22.61;57.73
68746;SHT31;73143;45.456;11.064;2023-10-08T08:50:03;22.70;57.15
68746;SHT31;73143;45.456;11.064;2023-10-08T08:52:43;22.77;56.71
68746;SHT31;73143;45.456;11.064;2023-10-08T08:55:21;22.82;56.79
68746;SHT31;73143;45.456;11.064;2023-10-08T08:57:58;22.88;56.92
68746;SHT31;73143;45.456;11.064;2023-10-08T09:00:40;22.96;56.57
68746;SHT31;73143;45.456;11.064;2023-10-08T09:03:22;23.03;55.95
68746;SHT31;73143;45.456;11.064;2023-10-08T09:06:02;23.11;55.73
68746;SHT31;73143;45.456;11.064;2023-10-08T09:08:41;23.19;55.32
68746;SHT31;73143;45.456;11.064;2023-10-08T09:11:18;23.28;54.88
68746;SHT31;73143;45.456;11.064;2023-10-08T09:13:55;23.36;54.57
68746;SHT31;73143;45.456;11.064;2023-10-08T09:16:41;23.44;54.39
68746;SHT31;73143;45.456;11.064;2023-10-08T09:19:17;23.49;54.35
68746;SHT31;73143;45.456;11.064;2023-10-08T09:22:01;23.55;54.36
68746;SHT31;73143;45.456;11.064;2023-10-08T09:24:40;23.61;54.55
68746;SHT31;73143;45.456;11.064;2023-10-08T09:27:17;23.67;53.63
68746;SHT31;73143;45.456;11.064;2023-10-08T09:30:00;23.74;53.29
68746;SHT31;73143;45.456;11.064;2023-10-08T09:32:48;23.82;53.22
68746;SHT31;73143;45.456;11.064;2023-10-08T09:35:25;23.89;53.11
68746;SHT31;73143;45.456;11.064;2023-10-08T09:38:04;23.94;53.13
68746;SHT31;73143;45.456;11.064;2023-10-08T09:40:41;24.01;52.78
68746;SHT31;73143;45.456;11.064;2023-10-08T09:43:18;24.08;52.60
68746;SHT31;73143;45.456;11.064;2023-10-08T09:45:58;24.15;52.61
68746;SHT31;73143;45.456;11.064;2023-10-08T09:48:45;24.22;52.11
68746;SHT31;73143;45.456;11.064;2023-10-08T09:51:29;24.31;51.99
68746;SHT31;73143;45.456;11.064;2023-10-08T09:54:11;24.39;52.20
68746;SHT31;73143;45.456;11.064;2023-10-08T09:56:54;24.47;51.58
68746;SHT31;73143;45.456;11.064;2023-10-08T09:59:33;24.54;50.42
68746;SHT31;73143;45.456;11.064;2023-10-08T10:02:11;24.60;50.03
68746;SHT31;73143;45.456;11.064;2023-10-08T10:04:52;24.64;50.12
68746;SHT31;73143;45.456;11.064;2023-10-08T10:07:31;24.72;49.95
68746;SHT31;73143;45.456;11.064;2023-10-08T10:10:18;24.82;50.20
68746;SHT31;73143;45.456;11.064;2023-10-08T10:13:04;24.92;50.31
68746;SHT31;73143;45.456;11.064;2023-10-08T10:15:44;25.01;50.16
68746;SHT31;73143;45.456;11.064;2023-10-08T10:18:28;25.08;50.08
68746;SHT31;73143;45.456;11.064;2023-10-08T10:21:29;25.15;49.67
68746;SHT31;73143;45.456;11.064;2023-10-08T10:24:12;25.19;49.37
68746;SHT31;73143;45.456;11.064;2023-10-08T10:27:13;25.30;49.16
68746;SHT31;73143;45.456;11.064;2023-10-08T10:29:50;25.38;48.90
68746;SHT31;73143;45.456;11.064;2023-10-08T10:32:37;25.42;48.60
68746;SHT31;73143;45.456;11.064;2023-10-08T10:35:19;25.44;48.20
68746;SHT31;73143;45.456;11.064;2023-10-08T10:37:57;25.47;48.10
68746;SHT31;73143;45.456;11.064;2023-10-08T10:40:35;25.52;48.04
68746;SHT31;73143;45.456;11.064;2023-10-08T10:43:11;25.58;47.84
68746;SHT31;73143;45.456;11.064;2023-10-08T10:45:48;25.62;47.71
68746;SHT31;73143;45.456;11.064;2023-10-08T10:48:25;25.70;47.72
68746;SHT31;73143;45.456;11.064;2023-10-08T10:51:09;25.80;47.34
68746;SHT31;73143;45.456;11.064;2023-10-08T10:53:47;25.90;47.13
68746;SHT31;73143;45.456;11.064;2023-10-08T10:56:37;25.98;46.88
68746;SHT31;73143;45.456;11.064;2023-10-08T10:59:16;26.03;46.89
68746;SHT31;73143;45.456;11.064;2023-10-08T11:01:56;26.06;46.73
68746;SHT31;73143;45.456;11.064;2023-10-08T11:04:37;26.12;47.05
68746;SHT31;73143;45.456;11.064;2023-10-08T11:07:18;26.18;46.68
68746;SHT31;73143;45.456;11.064;2023-10-08T11:09:54;26.21;46.36
68746;SHT31;73143;45.456;11.064;2023-10-08T11:12:35;26.26;46.43
68746;SHT31;73143;45.456;11.064;2023-10-08T11:15:16;26.36;46.40
68746;SHT31;73143;45.456;11.064;2023-10-08T11:17:56;26.45;45.81
68746;SHT31;73143;45.456;11.064;2023-10-08T11:20:34;26.55;45.63
68746;SHT31;73143;45.456;11.064;2023-10-08T11:23:14;26.64;45.38
68746;SHT31;73143;45.456;11.064;2023-10-08T11:26:12;26.75;45.07
68746;SHT31;73143;45.456;11.064;2023-10-08T11:28:50;26.82;44.84
68746;SHT31;73143;45.456;11.064;2023-10-08T11:31:29;26.88;44.47
68746;SHT31;73143;45.456;11.064;2023-10-08T11:34:10;26.95;43.90
68746;SHT31;73143;45.456;11.064;2023-10-08T11:36:54;27.06;43.19
68746;SHT31;73143;45.456;11.064;2023-10-08T11:39:40;27.12;43.11
68746;SHT31;73143;45.456;11.064;2023-10-08T11:42:17;27.20;43.25
68746;SHT31;73143;45.456;11.064;2023-10-08T11:45:10;27.28;42.71
68746;SHT31;73143;45.456;11.064;2023-10-08T11:47:53;27.36;42.12
68746;SHT31;73143;45.456;11.064;2023-10-08T11:50:33;27.43;42.29
68746;SHT31;73143;45.456;11.064;2023-10-08T11:53:10;27.50;42.69
68746;SHT31;73143;45.456;11.064;2023-10-08T11:55:48;27.56;42.79
68746;SHT31;73143;45.456;11.064;2023-10-08T11:58:25;27.59;41.87
68746;SHT31;73143;45.456;11.064;2023-10-08T12:01:07;27.63;41.13
68746;SHT31;73143;45.456;11.064;2023-10-08T12:03:44;27.67;41.00
68746;SHT31;73143;45.456;11.064;2023-10-08T12:06:22;27.72;41.27
68746;SHT31;73143;45.456;11.064;2023-10-08T12:08:59;27.80;41.54
68746;SHT31;73143;45.456;11.064;2023-10-08T12:11:42;27.90;41.65
68746;SHT31;73143;45.456;11.064;2023-10-08T12:14:18;27.99;41.79
68746;SHT31;73143;45.456;11.064;2023-10-08T12:16:59;28.05;41.75
68746;SHT31;73143;45.456;11.064;2023-10-08T12:19:40;28.12;41.61
68746;SHT31;73143;45.456;11.064;2023-10-08T12:22:19;28.20;41.44
68746;SHT31;73143;45.456;11.064;2023-10-08T12:24:57;28.26;40.98
68746;SHT31;73143;45.456;11.064;2023-10-08T12:27:36;28.30;40.50
68746;SHT31;73143;45.456;11.064;2023-10-08T12:30:14;28.34;40.48
68746;SHT31;73143;45.456;11.064;2023-10-08T12:33:00;28.40;40.44
68746;SHT31;73143;45.456;11.064;2023-10-08T12:35:41;28.45;40.46
68746;SHT31;73143;45.456;11.064;2023-10-08T12:38:18;28.52;40.27
68746;SHT31;73143;45.456;11.064;2023-10-08T12:40:57;28.56;40.30
68746;SHT31;73143;45.456;11.064;2023-10-08T12:43:41;28.63;40.31
68746;SHT31;73143;45.456;11.064;2023-10-08T12:46:21;28.71;40.28
68746;SHT31;73143;45.456;11.064;2023-10-08T12:49:00;28.77;40.24
68746;SHT31;73143;45.456;11.064;2023-10-08T12:51:38;28.81;40.09
68746;SHT31;73143;45.456;11.064;2023-10-08T12:54:14;28.85;39.89
68746;SHT31;73143;45.456;11.064;2023-10-08T12:56:55;28.89;39.47
68746;SHT31;73143;45.456;11.064;2023-10-08T12:59:38;28.93;39.34
68746;SHT31;73143;45.456;11.064;2023-10-08T13:02:21;28.98;39.43
68746;SHT31;73143;45.456;11.064;2023-10-08T13:04:58;28.97;39.29
68746;SHT31;73143;45.456;11.064;2023-10-08T13:07:46;28.97;39.42
68746;SHT31;73143;45.456;11.064;2023-10-08T13:10:25;28.96;39.17
68746;SHT31;73143;45.456;11.064;2023-10-08T13:13:01;28.95;39.14
68746;SHT31;73143;45.456;11.064;2023-10-08T13:15:40;28.92;39.17
68746;SHT31;73143;45.456;11.064;2023-10-08T13:18:17;28.89;38.93
68746;SHT31;73143;45.456;11.064;2023-10-08T13:20:54;28.91;38.76
68746;SHT31;73143;45.456;11.064;2023-10-08T13:23:31;28.95;38.74
68746;SHT31;73143;45.456;11.064;2023-10-08T13:26:07;29.00;38.64
68746;SHT31;73143;45.456;11.064;2023-10-08T13:28:46;29.03;38.43
68746;SHT31;73143;45.456;11.064;2023-10-08T13:31:22;29.06;38.45
68746;SHT31;73143;45.456;11.064;2023-10-08T13:33:59;29.09;38.40
68746;SHT31;73143;45.456;11.064;2023-10-08T13:36:41;29.13;38.28
68746;SHT31;73143;45.456;11.064;2023-10-08T13:39:18;29.16;38.36
68746;SHT31;73143;45.456;11.064;2023-10-08T13:41:56;29.19;38.52
68746;SHT31;73143;45.456;11.064;2023-10-08T13:44:33;29.20;38.46
68746;SHT31;73143;45.456;11.064;2023-10-08T13:47:12;29.25;38.13
68746;SHT31;73143;45.456;11.064;2023-10-08T13:49:51;29.27;38.14
68746;SHT31;73143;45.456;11.064;2023-10-08T13:52:28;29.30;37.97
68746;SHT31;73143;45.456;11.064;2023-10-08T13:55:09;29.34;38.02
68746;SHT31;73143;45.456;11.064;2023-10-08T13:57:48;29.38;37.98
68746;SHT31;73143;45.456;11.064;2023-10-08T14:00:26;29.40;37.97
68746;SHT31;73143;45.456;11.064;2023-10-08T14:03:05;29.40;37.96
68746;SHT31;73143;45.456;11.064;2023-10-08T14:05:42;29.39;37.88
68746;SHT31;73143;45.456;11.064;2023-10-08T14:08:20;29.31;38.00
68746;SHT31;73143;45.456;11.064;2023-10-08T14:10:57;29.23;38.04
68746;SHT31;73143;45.456;11.064;2023-10-08T14:13:34;29.15;38.19
68746;SHT31;73143;45.456;11.064;2023-10-08T14:16:12;29.07;38.49
68746;SHT31;73143;45.456;11.064;2023-10-08T14:18:52;29.01;38.76
68746;SHT31;73143;45.456;11.064;2023-10-08T14:21:33;28.97;38.88
68746;SHT31;73143;45.456;11.064;2023-10-08T14:24:18;28.94;39.04
68746;SHT31;73143;45.456;11.064;2023-10-08T14:26:57;28.89;38.97
68746;SHT31;73143;45.456;11.064;2023-10-08T14:29:39;28.84;39.06
68746;SHT31;73143;45.456;11.064;2023-10-08T14:32:19;28.81;39.20
68746;SHT31;73143;45.456;11.064;2023-10-08T14:34:57;28.77;39.39
68746;SHT31;73143;45.456;11.064;2023-10-08T14:37:51;28.74;39.50
68746;SHT31;73143;45.456;11.064;2023-10-08T14:40:45;28.68;39.64
68746;SHT31;73143;45.456;11.064;2023-10-08T14:43:39;28.63;39.73
68746;SHT31;73143;45.456;11.064;2023-10-08T14:46:17;28.61;39.87
68746;SHT31;73143;45.456;11.064;2023-10-08T14:48:54;28.58;40.05
68746;SHT31;73143;45.456;11.064;2023-10-08T14:51:32;28.55;40.21
68746;SHT31;73143;45.456;11.064;2023-10-08T14:54:10;28.52;40.31
68746;SHT31;73143;45.456;11.064;2023-10-08T14:56:48;28.51;40.47
68746;SHT31;73143;45.456;11.064;2023-10-08T14:59:27;28.49;40.62
68746;SHT31;73143;45.456;11.064;2023-10-08T15:02:04;28.47;40.67
68746;SHT31;73143;45.456;11.064;2023-10-08T15:04:41;28.46;40.72
68746;SHT31;73143;45.456;11.064;2023-10-08T15:07:19;28.44;40.64
68746;SHT31;73143;45.456;11.064;2023-10-08T15:09:56;28.43;40.42
68746;SHT31;73143;45.456;11.064;2023-10-08T15:12:33;28.40;40.35
68746;SHT31;73143;45.456;11.064;2023-10-08T15:15:11;28.35;40.58
68746;SHT31;73143;45.456;11.064;2023-10-08T15:17:54;28.32;40.13
68746;SHT31;73143;45.456;11.064;2023-10-08T15:20:30;28.29;39.78
68746;SHT31;73143;45.456;11.064;2023-10-08T15:23:10;28.27;39.80
68746;SHT31;73143;45.456;11.064;2023-10-08T15:25:49;28.24;39.88
68746;SHT31;73143;45.456;11.064;2023-10-08T15:28:26;28.20;39.82
68746;SHT31;73143;45.456;11.064;2023-10-08T15:31:02;28.17;39.85
68746;SHT31;73143;45.456;11.064;2023-10-08T15:33:38;28.13;39.77
68746;SHT31;73143;45.456;11.064;2023-10-08T15:36:15;28.11;39.56
68746;SHT31;73143;45.456;11.064;2023-10-08T15:38:52;28.08;39.42
68746;SHT31;73143;45.456;11.064;2023-10-08T15:41:30;28.05;39.38
68746;SHT31;73143;45.456;11.064;2023-10-08T15:44:07;28.01;39.30
68746;SHT31;73143;45.456;11.064;2023-10-08T15:46:43;27.97;39.49
68746;SHT31;73143;45.456;11.064;2023-10-08T15:49:19;27.93;39.59
68746;SHT31;73143;45.456;11.064;2023-10-08T15:51:56;27.89;39.82
68746;SHT31;73143;45.456;11.064;2023-10-08T15:54:34;27.85;40.01
68746;SHT31;73143;45.456;11.064;2023-10-08T15:57:13;27.80;40.13
68746;SHT31;73143;45.456;11.064;2023-10-08T15:59:50;27.76;40.49
68746;SHT31;73143;45.456;11.064;2023-10-08T16:02:26;27.72;40.44
68746;SHT31;73143;45.456;11.064;2023-10-08T16:05:03;27.68;40.35
68746;SHT31;73143;45.456;11.064;2023-10-08T16:07:42;27.64;40.47
68746;SHT31;73143;45.456;11.064;2023-10-08T16:10:19;27.60;40.85
68746;SHT31;73143;45.456;11.064;2023-10-08T16:12:57;27.55;41.55
68746;SHT31;73143;45.456;11.064;2023-10-08T16:15:33;27.49;42.11
68746;SHT31;73143;45.456;11.064;2023-10-08T16:18:10;27.40;43.45
68746;SHT31;73143;45.456;11.064;2023-10-08T16:20:47;27.26;44.85
68746;SHT31;73143;45.456;11.064;2023-10-08T16:23:23;27.11;45.54
68746;SHT31;73143;45.456;11.064;2023-10-08T16:26:01;26.98;45.72
68746;SHT31;73143;45.456;11.064;2023-10-08T16:28:40;26.89;45.92
68746;SHT31;73143;45.456;11.064;2023-10-08T16:31:17;26.79;46.25
68746;SHT31;73143;45.456;11.064;2023-10-08T16:33:54;26.67;46.53
68746;SHT31;73143;45.456;11.064;2023-10-08T16:36:31;26.53;46.75
68746;SHT31;73143;45.456;11.064;2023-10-08T16:39:08;26.45;47.08
68746;SHT31;73143;45.456;11.064;2023-10-08T16:41:46;26.35;47.42
68746;SHT31;73143;45.456;11.064;2023-10-08T16:44:23;26.29;47.69
68746;SHT31;73143;45.456;11.064;2023-10-08T16:47:00;26.21;47.89